Maple Leaf, South Dakota
Current Conditions -  °F | °C
As of 12:52 PM on Saturday 20 Dec 2014 (Local Time) from KMBG Reporting Station
Broken Clouds Broken Clouds  
Wind Chill: 20°   Ceiling: 6000
Heat Index: 30°   Visibility: 10mi
Dew Point: 27°   Wind: 13mph
Humidity: 88%   Direction: 150°SSE
Pressure: 29.85"   Gusts: NA
Location:  45.6923°N, 100.994°W
Report Text: KMBG 201952Z AUTO 15011KT 10SM BKN060 BKN080 BKN100 M01/M03 A2985 RMK AO2 SLP132 T10111028
Loading
Personal Weather Stations






























Interactive Weather Map New forecast layout! Learn more

10-Day Weather Forecast

Advertisements
Track Severe Weather on mobile